McCall, Louisiana
Current Conditions -  °F | °C
As of 6:15 AM on Friday 19 Dec 2014 (Local Time) from KL38 Reporting Station
Light Rain Light Rain  
Wind Chill: 55°   Ceiling: 1000
Heat Index: 55°   Visibility: 7mi
Dew Point: 55°   Wind: 3mph
Humidity: 100%   Direction: 10°N
Pressure: 30.11"   Gusts: NA
Location:  30.1206°N, 91.0306°W
Report Text: KL38 191215Z AUTO 01003KT 7SM -RA BKN010 OVC015 13/13 A3011 RMK AO2 LTG DSNT N THRU E P0002 T01250125
Loading
Personal Weather Stations






























Interactive Weather Map New forecast layout! Learn more

10-Day Weather Forecast

Advertisements
Track Severe Weather on mobile